Time;durP1;ratioP1;P1;durP2;ratioP2;P2;SDS_P1;SDS_P2;PMS_P1;PMS_P2;Temp;Humidity;BMP_temperature;BMP_pressure;BME280_temperature;BME280_humidity;BME280_pressure;Samples;Min_cycle;Max_cycle;Signal;HPM_P1;HPM_P2
2023/05/11 00:01:49;;;;;;;2.58;1.10;;;12.20;99.90;;;;;;5054360;28;20071;-54
2023/05/11 00:04:14;;;;;;;0.93;0.80;;;12.20;99.90;;;;;;5071527;28;20035;-53
2023/05/11 00:06:40;;;;;;;0.82;0.80;;;12.20;99.90;;;;;;5072486;28;20060;-49
2023/05/11 00:09:06;;;;;;;2.20;1.25;;;12.20;99.90;;;;;;5072453;28;20155;-51
2023/05/11 00:11:32;;;;;;;4.05;1.00;;;12.20;99.90;;;;;;5072301;28;20035;-51
2023/05/11 00:13:57;;;;;;;1.13;1.00;;;12.10;99.90;;;;;;5072381;28;20107;-54
2023/05/11 00:16:23;;;;;;;2.35;1.00;;;12.10;99.90;;;;;;5072250;28;20028;-52
2023/05/11 00:18:48;;;;;;;1.70;0.85;;;12.10;99.90;;;;;;5072047;28;20032;-52
2023/05/11 00:21:14;;;;;;;1.20;1.13;;;12.10;99.90;;;;;;5071920;28;20029;-48
2023/05/11 00:23:46;;;;;;;4.22;0.90;;;12.10;99.90;;;;;;5068718;28;20720;-52
2023/05/11 00:26:11;;;;;;;2.22;1.45;;;12.10;99.90;;;;;;5066404;28;20077;-48
2023/05/11 00:28:36;;;;;;;2.60;0.90;;;12.10;99.90;;;;;;5068415;28;20052;-47
2023/05/11 00:31:02;;;;;;;1.00;0.90;;;12.10;99.90;;;;;;5068499;28;20021;-50
2023/05/11 00:33:27;;;;;;;1.50;0.90;;;12.10;99.90;;;;;;5068493;28;20033;-48
2023/05/11 00:35:53;;;;;;;0.93;0.90;;;12.10;99.90;;;;;;5066292;28;20234;-48
2023/05/11 00:38:18;;;;;;;1.45;1.08;;;12.10;99.90;;;;;;5066767;28;20439;-48
2023/05/11 00:40:44;;;;;;;2.55;1.00;;;12.10;99.90;;;;;;5068275;28;20033;-53
2023/05/11 00:43:10;;;;;;;3.25;1.30;;;12.10;99.90;;;;;;5068400;28;20024;-52
2023/05/11 00:45:36;;;;;;;2.38;1.10;;;12.10;99.90;;;;;;5068416;28;20020;-49
2023/05/11 00:48:02;;;;;;;1.25;0.90;;;12.00;99.90;;;;;;5068116;28;20385;-45
2023/05/11 00:50:27;;;;;;;3.95;1.10;;;11.90;99.90;;;;;;5068446;28;20028;-50
2023/05/11 00:52:54;;;;;;;1.00;0.98;;;11.80;99.90;;;;;;5067987;28;20033;-49
2023/05/11 00:55:20;;;;;;;2.15;0.90;;;11.90;99.90;;;;;;5066817;28;20025;-51
2023/05/11 00:57:47;;;;;;;1.65;1.13;;;11.80;99.90;;;;;;5067833;28;20036;-51
2023/05/11 01:00:13;;;;;;;3.90;1.20;;;11.80;99.90;;;;;;5067345;28;20064;-49
2023/05/11 01:02:39;;;;;;;1.92;1.05;;;11.80;99.90;;;;;;5066264;28;20098;-48
2023/05/11 01:05:05;;;;;;;7.47;1.05;;;11.70;99.90;;;;;;5068100;28;20033;-52
2023/05/11 01:07:42;;;;;;;2.92;1.02;;;11.70;99.90;;;;;;5066391;28;20405;-48
2023/05/11 01:10:20;;;;;;;2.28;1.20;;;11.80;99.90;;;;;;5068019;28;20023;-50
2023/05/11 01:13:14;;;;;;;3.95;0.90;;;11.70;99.90;;;;;;5067625;28;20112;-53
2023/05/11 01:15:50;;;;;;;1.23;0.98;;;11.70;99.90;;;;;;5067779;28;20035;-51
2023/05/11 01:18:32;;;;;;;2.28;1.15;;;11.60;99.90;;;;;;5067401;28;20082;-52
2023/05/11 01:21:00;;;;;;;1.40;1.10;;;11.70;99.90;;;;;;5066027;28;20556;-54
2023/05/11 01:23:34;;;;;;;2.83;1.17;;;11.60;99.90;;;;;;5067537;28;20040;-48
2023/05/11 01:26:26;;;;;;;2.03;1.00;;;11.70;99.90;;;;;;5067533;28;20043;-49
2023/05/11 01:29:05;;;;;;;1.10;1.00;;;11.70;99.90;;;;;;5067210;28;20021;-52
2023/05/11 01:31:33;;;;;;;3.80;1.00;;;11.70;99.90;;;;;;5067147;28;20025;-52
2023/05/11 01:34:07;;;;;;;10.88;2.42;;;11.60;99.90;;;;;;5060443;28;20040;-50
2023/05/11 01:36:36;;;;;;;2.67;1.50;;;11.60;99.90;;;;;;5053033;28;20021;-52
2023/05/11 01:39:06;;;;;;;3.00;1.20;;;11.60;99.90;;;;;;5052781;28;20028;-48
2023/05/11 01:41:34;;;;;;;2.17;1.35;;;11.50;99.90;;;;;;5053822;28;20021;-49
2023/05/11 01:44:04;;;;;;;2.40;1.30;;;11.50;99.90;;;;;;5053803;28;20036;-46
2023/05/11 01:46:32;;;;;;;1.25;1.17;;;11.50;99.90;;;;;;5053935;28;20013;-49
2023/05/11 01:49:00;;;;;;;4.03;1.60;;;11.50;99.90;;;;;;5053617;28;20021;-50
2023/05/11 01:51:29;;;;;;;1.65;1.20;;;11.50;99.90;;;;;;5053632;28;20439;-51
2023/05/11 01:53:56;;;;;;;2.47;1.75;;;11.40;99.90;;;;;;5053731;28;20025;-50
2023/05/11 01:56:23;;;;;;;1.60;1.50;;;11.40;99.90;;;;;;5054128;28;20018;-50
2023/05/11 01:58:49;;;;;;;8.95;1.50;;;11.40;99.90;;;;;;5053526;28;20017;-48
2023/05/11 02:01:16;;;;;;;5.90;2.10;;;11.30;99.90;;;;;;5053351;28;20032;-51
2023/05/11 02:03:42;;;;;;;4.82;1.50;;;11.30;99.90;;;;;;5053553;28;20386;-50
2023/05/11 02:06:10;;;;;;;2.00;1.40;;;11.30;99.90;;;;;;5053463;28;20029;-54
2023/05/11 02:08:37;;;;;;;7.55;1.98;;;11.20;99.90;;;;;;5053265;28;20037;-52
2023/05/11 02:11:04;;;;;;;1.95;1.73;;;11.30;99.90;;;;;;5052136;28;20445;-49
2023/05/11 02:13:32;;;;;;;3.70;1.58;;;11.30;99.90;;;;;;5053492;28;20017;-51
2023/05/11 02:15:58;;;;;;;4.15;1.38;;;11.30;99.90;;;;;;5053293;28;20052;-51
2023/05/11 02:18:24;;;;;;;2.47;2.15;;;11.30;99.90;;;;;;5052953;28;20021;-53
2023/05/11 02:20:50;;;;;;;2.33;1.70;;;11.30;99.90;;;;;;5051761;28;20135;-50
2023/05/11 02:23:17;;;;;;;1.60;1.50;;;11.30;99.90;;;;;;5053146;28;20507;-52
2023/05/11 02:25:43;;;;;;;1.63;1.52;;;11.20;99.90;;;;;;5053520;28;20029;-52
2023/05/11 02:28:09;;;;;;;3.13;1.50;;;11.20;99.90;;;;;;5053041;28;20139;-49
2023/05/11 02:30:41;;;;;;;1.58;1.40;;;11.20;99.90;;;;;;5052848;28;20104;-54
2023/05/11 02:33:09;;;;;;;3.72;1.42;;;11.20;99.90;;;;;;5053133;28;20115;-50
2023/05/11 02:35:42;;;;;;;3.92;1.90;;;11.20;99.90;;;;;;5052109;28;20032;-53
2023/05/11 02:38:10;;;;;;;4.88;1.75;;;11.20;99.90;;;;;;5052835;28;20039;-51
2023/05/11 02:40:44;;;;;;;2.72;2.53;;;11.20;99.90;;;;;;5052601;28;20033;-52
2023/05/11 02:43:12;;;;;;;8.13;1.90;;;11.20;99.90;;;;;;5052952;28;20028;-49
2023/05/11 02:45:43;;;;;;;3.72;1.88;;;11.20;99.90;;;;;;5049339;28;20382;-51
2023/05/11 02:48:16;;;;;;;2.30;2.10;;;11.20;99.90;;;;;;5052433;28;20032;-57
2023/05/11 02:50:42;;;;;;;2.40;1.83;;;11.20;99.90;;;;;;5052514;28;20056;-51
2023/05/11 02:53:14;;;;;;;1.83;1.60;;;11.20;99.90;;;;;;5052707;28;20057;-50
2023/05/11 02:55:40;;;;;;;2.35;1.85;;;11.20;99.90;;;;;;5052617;28;20032;-51
2023/05/11 02:58:06;;;;;;;2.05;1.90;;;11.20;99.90;;;;;;5052564;28;20035;-52
2023/05/11 03:00:32;;;;;;;2.60;2.40;;;11.10;99.90;;;;;;5052171;28;20061;-51
2023/05/11 03:02:58;;;;;;;2.38;2.10;;;11.10;99.90;;;;;;5052584;28;20057;-48
2023/05/11 03:05:24;;;;;;;2.63;2.42;;;11.10;99.90;;;;;;5052637;28;20023;-48
2023/05/11 03:07:51;;;;;;;2.67;1.80;;;11.10;99.90;;;;;;5052122;28;20029;-54
2023/05/11 03:10:16;;;;;;;4.15;2.00;;;11.10;99.90;;;;;;5052493;28;20100;-49
2023/05/11 03:12:43;;;;;;;2.60;2.10;;;11.10;99.90;;;;;;5052163;28;20112;-49
2023/05/11 03:15:11;;;;;;;5.13;2.10;;;11.10;99.90;;;;;;5052098;28;20075;-48
2023/05/11 03:17:38;;;;;;;2.63;2.38;;;11.10;99.90;;;;;;5051841;28;20546;-50
2023/05/11 03:20:06;;;;;;;2.80;1.75;;;11.10;99.90;;;;;;5051205;28;20032;-53
2023/05/11 03:22:33;;;;;;;3.78;2.08;;;11.00;99.90;;;;;;5050546;28;20036;-50
2023/05/11 03:25:01;;;;;;;7.43;2.78;;;11.00;99.90;;;;;;5052177;28;20017;-49
2023/05/11 03:27:28;;;;;;;1.98;1.88;;;11.00;99.90;;;;;;5051830;28;20033;-50
2023/05/11 03:29:55;;;;;;;8.65;2.17;;;11.00;99.90;;;;;;5052017;28;20137;-45
2023/05/11 03:32:20;;;;;;;2.40;2.20;;;10.90;99.90;;;;;;5051545;28;20085;-51
2023/05/11 03:34:46;;;;;;;2.30;2.05;;;11.00;99.90;;;;;;5050882;28;20489;-48
2023/05/11 03:37:13;;;;;;;3.33;2.08;;;10.90;99.90;;;;;;5051578;28;20102;-49
2023/05/11 03:39:42;;;;;;;1.83;1.70;;;10.90;99.90;;;;;;5051869;28;20029;-50
2023/05/11 03:42:09;;;;;;;7.35;2.90;;;10.90;99.90;;;;;;5051312;28;20021;-49
2023/05/11 03:44:35;;;;;;;2.08;1.92;;;10.90;99.90;;;;;;5051513;28;20029;-54
2023/05/11 03:47:02;;;;;;;2.97;1.90;;;10.80;99.90;;;;;;5051428;28;20100;-51
2023/05/11 03:49:29;;;;;;;3.75;2.40;;;10.80;99.90;;;;;;5051818;28;20031;-50
2023/05/11 03:51:56;;;;;;;2.65;2.10;;;10.80;99.90;;;;;;5051712;28;20024;-50
2023/05/11 03:54:22;;;;;;;2.35;1.98;;;10.80;99.90;;;;;;5049352;28;20025;-52
2023/05/11 03:56:47;;;;;;;2.75;1.88;;;10.70;99.90;;;;;;5050878;28;20051;-47
2023/05/11 03:59:17;;;;;;;9.20;1.67;;;10.70;99.90;;;;;;5051510;28;20037;-49
2023/05/11 04:01:43;;;;;;;2.67;1.98;;;10.70;99.90;;;;;;5049872;28;20032;-50
2023/05/11 04:04:09;;;;;;;2.35;2.03;;;10.70;99.90;;;;;;5051471;28;20021;-49
2023/05/11 04:06:35;;;;;;;3.35;2.20;;;10.80;99.90;;;;;;5050095;28;20404;-50
2023/05/11 04:09:00;;;;;;;2.38;1.90;;;10.70;99.90;;;;;;5051087;28;20059;-51
2023/05/11 04:11:26;;;;;;;2.85;1.73;;;10.70;99.90;;;;;;5051123;28;20549;-55
2023/05/11 04:13:52;;;;;;;4.55;2.72;;;10.70;99.90;;;;;;5051389;28;20024;-48
2023/05/11 04:16:17;;;;;;;2.55;2.17;;;10.70;99.90;;;;;;5051378;28;20494;-48
2023/05/11 04:18:43;;;;;;;7.97;2.63;;;10.70;99.90;;;;;;5051022;28;20067;-49
2023/05/11 04:21:09;;;;;;;2.75;2.50;;;10.70;99.90;;;;;;5058971;22;20041;-44
2023/05/11 04:23:34;;;;;;;5.03;2.30;;;10.80;99.90;;;;;;5010503;28;20378;-45
2023/05/11 04:26:00;;;;;;;3.10;2.03;;;10.80;99.90;;;;;;5010435;28;20106;-42
2023/05/11 04:28:26;;;;;;;2.03;1.92;;;10.80;99.90;;;;;;5011240;28;20065;-44
2023/05/11 04:30:56;;;;;;;2.22;1.85;;;10.80;99.90;;;;;;5011214;28;20498;-43
2023/05/11 04:33:22;;;;;;;2.22;2.08;;;10.80;99.90;;;;;;5011448;28;20026;-44
2023/05/11 04:35:52;;;;;;;3.25;2.20;;;10.90;99.90;;;;;;5010301;28;20030;-44
2023/05/11 04:38:19;;;;;;;2.25;2.05;;;10.80;99.90;;;;;;5011250;28;20465;-41
2023/05/11 04:40:46;;;;;;;3.67;2.28;;;10.90;99.90;;;;;;5011287;28;20022;-46
2023/05/11 04:43:12;;;;;;;2.13;1.92;;;10.90;99.90;;;;;;5011686;28;20045;-45
2023/05/11 04:45:38;;;;;;;1.92;1.83;;;10.90;99.90;;;;;;5011708;28;20049;-44
2023/05/11 04:48:05;;;;;;;3.17;2.20;;;11.00;99.90;;;;;;5010999;28;20116;-44
2023/05/11 04:50:31;;;;;;;6.53;3.60;;;11.00;99.90;;;;;;5011052;28;20045;-40
2023/05/11 04:52:56;;;;;;;3.55;2.30;;;11.00;99.90;;;;;;5011253;28;20486;-42
2023/05/11 04:55:22;;;;;;;2.33;2.13;;;11.10;99.90;;;;;;5009975;28;20486;-45
2023/05/11 04:57:47;;;;;;;3.97;2.20;;;11.10;99.90;;;;;;5010900;28;20073;-44
2023/05/11 05:00:13;;;;;;;2.33;2.22;;;11.10;99.90;;;;;;5011272;28;20485;-48
2023/05/11 05:02:38;;;;;;;2.40;2.22;;;11.20;99.90;;;;;;5009704;28;20065;-44
2023/05/11 05:05:04;;;;;;;3.22;2.50;;;11.30;99.90;;;;;;5011618;28;20018;-45
2023/05/11 05:07:30;;;;;;;2.47;2.13;;;11.40;99.90;;;;;;5011191;28;20025;-46
2023/05/11 05:09:55;;;;;;;6.10;2.25;;;11.40;99.90;;;;;;5013865;28;20032;-44
2023/05/11 05:12:21;;;;;;;4.00;2.63;;;11.50;99.90;;;;;;5014522;28;20544;-44
2023/05/11 05:14:46;;;;;;;2.40;2.20;;;11.50;99.90;;;;;;5015031;28;20033;-44
2023/05/11 05:17:12;;;;;;;3.03;2.20;;;11.60;99.90;;;;;;5013348;28;20458;-46
2023/05/11 05:19:37;;;;;;;2.13;2.00;;;11.60;99.90;;;;;;5014678;28;20033;-47
2023/05/11 05:22:04;;;;;;;10.13;2.30;;;11.60;99.90;;;;;;5012694;28;20132;-45
2023/05/11 05:24:29;;;;;;;2.00;1.90;;;11.60;99.90;;;;;;5015044;28;20030;-46
2023/05/11 05:26:55;;;;;;;2.25;2.03;;;11.60;99.90;;;;;;5014281;28;20029;-45
2023/05/11 05:29:20;;;;;;;6.72;2.80;;;11.60;99.90;;;;;;5014732;28;20109;-44
2023/05/11 05:31:46;;;;;;;5.57;2.45;;;11.70;99.90;;;;;;5014179;28;20284;-45
2023/05/11 05:34:11;;;;;;;4.38;2.38;;;11.70;99.90;;;;;;5013672;28;20022;-51
2023/05/11 05:36:38;;;;;;;2.20;2.08;;;11.70;99.90;;;;;;5013613;28;20030;-48
2023/05/11 05:39:07;;;;;;;3.47;2.00;;;11.70;99.90;;;;;;5013918;28;20032;-46
2023/05/11 05:41:33;;;;;;;2.22;2.03;;;11.80;99.90;;;;;;5013837;28;20595;-46
2023/05/11 05:43:58;;;;;;;2.88;1.92;;;11.80;99.90;;;;;;5014414;28;20026;-44
2023/05/11 05:46:24;;;;;;;4.72;2.13;;;11.90;99.90;;;;;;5014290;28;20038;-44
2023/05/11 05:48:49;;;;;;;3.50;2.38;;;11.80;99.90;;;;;;5013679;28;20032;-46
2023/05/11 05:51:15;;;;;;;3.45;2.08;;;11.90;99.90;;;;;;5013843;28;20068;-48
2023/05/11 05:53:41;;;;;;;3.50;1.90;;;11.90;99.90;;;;;;5014103;28;20100;-45
2023/05/11 05:56:06;;;;;;;1.90;1.60;;;11.90;99.90;;;;;;5013984;28;20034;-47
2023/05/11 05:58:32;;;;;;;2.30;1.85;;;11.90;99.90;;;;;;5013704;28;20029;-48
2023/05/11 06:00:57;;;;;;;2.88;2.55;;;12.00;99.90;;;;;;5013707;28;20026;-44
2023/05/11 06:03:23;;;;;;;6.88;2.00;;;12.00;99.90;;;;;;5013933;28;20033;-45
2023/05/11 06:05:48;;;;;;;2.10;1.92;;;12.00;99.90;;;;;;5014077;28;20026;-45
2023/05/11 06:08:14;;;;;;;1.92;1.83;;;12.00;99.90;;;;;;5013745;28;20457;-46
2023/05/11 06:10:39;;;;;;;1.77;1.67;;;12.00;99.90;;;;;;5012774;28;20109;-47
2023/05/11 06:13:07;;;;;;;1.90;1.80;;;12.10;99.90;;;;;;5014848;28;20030;-45
2023/05/11 06:15:32;;;;;;;4.03;1.95;;;12.10;99.90;;;;;;5014082;28;20034;-51
2023/05/11 06:17:58;;;;;;;3.35;1.80;;;12.20;99.90;;;;;;5014026;28;20036;-44
2023/05/11 06:20:23;;;;;;;3.13;1.98;;;12.20;99.90;;;;;;5015563;28;20057;-44
2023/05/11 06:22:49;;;;;;;3.85;1.80;;;12.30;99.90;;;;;;5013412;28;20517;-46
2023/05/11 06:25:14;;;;;;;4.05;2.03;;;12.20;99.90;;;;;;5012288;28;20102;-45
2023/05/11 06:27:40;;;;;;;4.18;1.77;;;12.20;99.90;;;;;;5013255;28;20061;-46
2023/05/11 06:30:06;;;;;;;5.50;2.88;;;12.20;99.90;;;;;;5013729;28;20026;-46
2023/05/11 06:32:33;;;;;;;2.08;1.80;;;12.20;99.90;;;;;;5013051;28;20374;-45
2023/05/11 06:34:58;;;;;;;2.05;1.83;;;12.30;99.90;;;;;;5012372;28;20109;-45
2023/05/11 06:37:24;;;;;;;1.75;1.67;;;12.40;99.90;;;;;;5013194;28;20065;-45
2023/05/11 06:39:50;;;;;;;3.17;1.70;;;12.50;99.90;;;;;;5013355;28;20507;-45
2023/05/11 06:42:15;;;;;;;1.80;1.70;;;12.50;99.90;;;;;;5012774;28;20037;-43
2023/05/11 06:44:41;;;;;;;1.48;1.40;;;12.50;99.90;;;;;;5011454;28;20489;-46
2023/05/11 06:47:07;;;;;;;1.90;1.65;;;12.50;99.90;;;;;;5012191;28;20018;-45
2023/05/11 06:49:33;;;;;;;3.67;1.80;;;12.60;99.90;;;;;;5013004;28;20444;-45
2023/05/11 06:51:58;;;;;;;2.10;1.85;;;12.70;99.90;;;;;;5012719;28;20105;-42
2023/05/11 06:54:24;;;;;;;3.97;1.98;;;12.70;99.90;;;;;;5013017;28;20072;-48
2023/05/11 06:56:50;;;;;;;2.42;1.80;;;12.80;99.90;;;;;;5012588;28;20026;-47
2023/05/11 06:59:15;;;;;;;3.90;1.67;;;12.80;99.90;;;;;;5013104;28;20041;-45
2023/05/11 07:01:41;;;;;;;4.10;2.15;;;12.90;99.90;;;;;;5012632;28;20052;-44
2023/05/11 07:04:06;;;;;;;2.67;2.47;;;12.90;99.90;;;;;;5012766;28;20022;-52
2023/05/11 07:06:32;;;;;;;2.20;2.00;;;12.80;99.90;;;;;;5011713;28;20018;-45
2023/05/11 07:08:58;;;;;;;3.00;2.70;;;12.70;99.90;;;;;;5012528;28;20026;-48
2023/05/11 07:11:24;;;;;;;3.78;1.90;;;12.70;99.90;;;;;;5012323;28;20026;-48
2023/05/11 07:13:50;;;;;;;6.15;2.13;;;12.70;99.90;;;;;;5011622;28;20108;-46
2023/05/11 07:16:16;;;;;;;2.30;2.10;;;12.70;99.90;;;;;;5012405;28;20482;-44
2023/05/11 07:18:41;;;;;;;4.43;2.22;;;12.80;99.90;;;;;;5012042;28;20092;-47
2023/05/11 07:21:07;;;;;;;3.85;2.13;;;12.80;99.90;;;;;;5011233;28;20040;-47
2023/05/11 07:23:32;;;;;;;2.88;1.83;;;12.90;99.90;;;;;;5010757;28;20045;-45
2023/05/11 07:25:58;;;;;;;5.05;3.22;;;12.90;99.90;;;;;;5011048;28;20021;-46
2023/05/11 07:28:24;;;;;;;8.98;2.25;;;13.00;99.90;;;;;;5011482;28;20030;-51
2023/05/11 07:30:49;;;;;;;3.15;2.40;;;13.10;99.90;;;;;;5011081;28;20076;-47
2023/05/11 07:33:15;;;;;;;3.30;2.40;;;13.30;99.90;;;;;;5011976;28;20030;-44
2023/05/11 07:35:41;;;;;;;3.97;2.78;;;13.30;99.90;;;;;;5011269;28;20022;-45
2023/05/11 07:38:08;;;;;;;2.35;2.22;;;13.30;99.90;;;;;;5011358;28;20159;-46
2023/05/11 07:40:34;;;;;;;5.88;3.47;;;13.30;99.90;;;;;;5010491;28;20025;-48
2023/05/11 07:42:59;;;;;;;2.60;2.40;;;13.30;99.90;;;;;;5010435;28;20030;-49
2023/05/11 07:45:25;;;;;;;3.35;2.63;;;13.30;99.90;;;;;;5012123;28;20026;-45
2023/05/11 07:47:51;;;;;;;3.92;2.50;;;13.30;99.90;;;;;;5011765;28;20022;-47
2023/05/11 07:50:17;;;;;;;3.17;2.80;;;13.30;99.90;;;;;;5011987;28;20068;-41
2023/05/11 07:52:42;;;;;;;4.60;3.53;;;13.40;99.90;;;;;;5011069;28;20386;-46
2023/05/11 07:55:08;;;;;;;4.22;3.08;;;13.30;99.90;;;;;;5010767;28;20034;-50
2023/05/11 07:57:33;;;;;;;8.13;3.25;;;13.40;99.90;;;;;;5010804;28;20026;-47
2023/05/11 07:59:59;;;;;;;6.97;2.95;;;13.50;99.90;;;;;;5011853;28;20088;-46
2023/05/11 08:02:24;;;;;;;5.03;2.97;;;13.50;99.90;;;;;;5011165;28;20099;-50
2023/05/11 08:04:50;;;;;;;3.50;2.70;;;13.60;99.90;;;;;;5011790;28;20026;-47
2023/05/11 08:07:16;;;;;;;5.10;3.17;;;13.70;99.90;;;;;;5010085;28;20026;-46
2023/05/11 08:09:41;;;;;;;3.40;2.90;;;13.70;99.90;;;;;;5011772;28;20544;-48
2023/05/11 08:12:08;;;;;;;3.60;2.95;;;13.80;99.90;;;;;;5009858;28;20034;-48
2023/05/11 08:14:33;;;;;;;4.97;2.95;;;13.90;99.90;;;;;;5010794;28;20030;-46
2023/05/11 08:16:59;;;;;;;4.93;3.22;;;14.00;99.90;;;;;;5011088;28;20608;-46
2023/05/11 08:19:25;;;;;;;4.30;3.67;;;14.00;99.90;;;;;;5011648;28;20060;-51
2023/05/11 08:21:51;;;;;;;6.35;4.10;;;14.00;99.90;;;;;;5010929;28;20042;-47
2023/05/11 08:24:16;;;;;;;4.63;3.10;;;14.10;99.90;;;;;;5011552;28;20101;-46
2023/05/11 08:26:42;;;;;;;5.13;3.67;;;14.20;99.90;;;;;;5010892;28;20032;-48
2023/05/11 08:29:09;;;;;;;4.70;4.10;;;14.40;99.90;;;;;;5010469;28;20375;-47
2023/05/11 08:31:35;;;;;;;9.23;3.40;;;14.50;99.90;;;;;;5010937;28;20442;-47
2023/05/11 08:34:01;;;;;;;3.63;3.33;;;14.60;99.90;;;;;;5011340;28;20101;-48
2023/05/11 08:36:27;;;;;;;3.40;2.88;;;14.70;99.90;;;;;;5011136;28;20037;-48
2023/05/11 08:38:52;;;;;;;2.80;2.60;;;14.70;99.90;;;;;;5011168;28;20030;-43
2023/05/11 08:41:18;;;;;;;4.03;3.60;;;14.80;99.90;;;;;;5010965;28;20018;-46
2023/05/11 08:43:45;;;;;;;3.95;3.55;;;15.00;99.90;;;;;;5012330;28;20054;-49
2023/05/11 08:46:14;;;;;;;8.90;2.97;;;15.00;99.90;;;;;;5014995;28;20025;-46
2023/05/11 08:48:41;;;;;;;3.13;2.88;;;15.10;99.90;;;;;;5013915;28;20083;-49
2023/05/11 08:51:08;;;;;;;3.95;3.60;;;15.20;99.90;;;;;;5014632;28;20026;-50
2023/05/11 08:53:33;;;;;;;6.43;3.50;;;15.20;99.90;;;;;;5015177;28;20076;-46
2023/05/11 08:56:00;;;;;;;3.38;3.08;;;15.30;99.90;;;;;;5015343;28;20490;-46
2023/05/11 08:58:26;;;;;;;4.00;3.60;;;15.30;99.90;;;;;;5014738;28;20037;-47
2023/05/11 09:00:53;;;;;;;3.90;3.60;;;15.10;99.90;;;;;;5014540;28;20092;-47
2023/05/11 09:03:19;;;;;;;4.50;4.10;;;15.10;99.90;;;;;;5009769;28;20076;-49
2023/05/11 09:05:45;;;;;;;4.10;3.70;;;15.10;99.90;;;;;;5012624;28;20496;-46
2023/05/11 09:08:12;;;;;;;4.38;3.22;;;15.10;99.90;;;;;;5014308;28;20018;-46
2023/05/11 09:10:38;;;;;;;4.43;3.83;;;15.20;99.90;;;;;;5014141;28;20417;-48
2023/05/11 09:13:04;;;;;;;5.30;4.47;;;15.30;99.90;;;;;;4995556;28;20022;-48
2023/05/11 09:15:30;;;;;;;6.57;4.60;;;15.20;99.90;;;;;;4995283;28;20074;-46
2023/05/11 09:17:55;;;;;;;3.72;3.38;;;15.30;99.90;;;;;;4995159;28;20122;-46
2023/05/11 09:20:30;;;;;;;4.53;3.75;;;15.40;99.90;;;;;;5010936;28;20026;-49
2023/05/11 09:22:57;;;;;;;6.90;6.25;;;15.40;99.90;;;;;;5013460;28;20034;-51
2023/05/11 09:25:23;;;;;;;37.03;25.85;;;15.40;99.90;;;;;;5013324;28;20037;-45
2023/05/11 09:27:49;;;;;;;120.40;83.68;;;15.50;99.90;;;;;;5014257;28;20100;-49
2023/05/11 09:30:17;;;;;;;11.70;9.10;;;15.60;99.90;;;;;;5014321;28;20021;-48
2023/05/11 09:32:57;;;;;;;5.80;4.28;;;15.70;99.90;;;;;;5013190;28;20042;-51
2023/05/11 09:35:30;;;;;;;5.10;4.70;;;15.90;99.90;;;;;;5014364;28;20018;-49
2023/05/11 09:38:08;;;;;;;5.22;4.78;;;15.90;99.90;;;;;;5014012;28;20053;-47
2023/05/11 09:40:38;;;;;;;6.32;4.05;;;16.10;99.90;;;;;;5012437;28;20025;-47
2023/05/11 09:43:28;;;;;;;7.68;4.63;;;16.20;99.90;;;;;;5007491;28;20026;-49
2023/05/11 09:45:56;;;;;;;3.88;3.47;;;16.30;99.90;;;;;;4994713;28;20018;-49
2023/05/11 09:48:30;;;;;;;4.40;4.00;;;16.20;99.90;;;;;;5011210;28;20018;-48
2023/05/11 09:51:06;;;;;;;5.20;4.80;;;16.20;99.90;;;;;;5013799;28;20040;-46
2023/05/11 09:53:36;;;;;;;5.13;3.92;;;16.20;99.90;;;;;;5014218;28;20417;-47
2023/05/11 09:56:03;;;;;;;4.35;3.75;;;16.20;99.90;;;;;;5013600;28;20030;-49
2023/05/11 09:58:46;;;;;;;8.30;4.60;;;16.20;99.90;;;;;;5011953;28;20117;-51
2023/05/11 10:01:12;;;;;;;9.45;4.53;;;16.20;99.90;;;;;;5013640;28;20038;-46
2023/05/11 10:03:47;;;;;;;5.20;4.55;;;16.10;99.90;;;;;;5012307;28;20029;-47
2023/05/11 10:06:14;;;;;;;6.05;5.45;;;16.00;99.90;;;;;;5013620;28;20107;-49
2023/05/11 10:08:40;;;;;;;7.93;5.20;;;16.00;99.90;;;;;;5013721;28;20390;-48
2023/05/11 10:11:07;;;;;;;7.13;4.70;;;15.90;99.90;;;;;;5013447;28;20022;-46
2023/05/11 10:13:33;;;;;;;5.00;4.57;;;15.80;99.90;;;;;;5013993;28;20034;-44
2023/05/11 10:16:03;;;;;;;5.85;5.20;;;15.80;99.90;;;;;;5011902;28;20021;-46
2023/05/11 10:18:30;;;;;;;6.22;4.68;;;15.70;99.90;;;;;;5013275;28;20030;-45
2023/05/11 10:20:57;;;;;;;4.88;4.47;;;15.70;99.90;;;;;;5013856;28;20064;-49
2023/05/11 10:23:23;;;;;;;7.28;5.63;;;15.60;99.90;;;;;;5013268;28;20083;-43
2023/05/11 10:25:51;;;;;;;10.23;7.00;;;15.50;99.90;;;;;;5013723;28;20026;-48
2023/05/11 10:28:16;;;;;;;7.13;5.50;;;15.50;99.90;;;;;;5013674;28;20026;-47
2023/05/11 10:30:43;;;;;;;5.22;4.80;;;15.50;99.90;;;;;;5010679;28;20017;-50
2023/05/11 10:33:09;;;;;;;7.20;4.80;;;15.40;99.90;;;;;;5012335;28;20041;-47
2023/05/11 10:35:37;;;;;;;7.28;5.30;;;15.40;99.90;;;;;;5013316;28;20291;-46
2023/05/11 10:38:02;;;;;;;6.10;5.47;;;15.40;99.90;;;;;;5011368;28;20544;-49
2023/05/11 10:40:33;;;;;;;6.70;5.47;;;15.50;99.90;;;;;;5013051;28;20034;-48
2023/05/11 10:43:17;;;;;;;5.75;4.85;;;15.60;99.90;;;;;;5012994;28;20133;-45
2023/05/11 10:46:07;;;;;;;7.50;5.53;;;15.60;99.90;;;;;;5009167;28;20022;-49
2023/05/11 10:48:53;;;;;;;5.47;4.95;;;15.60;99.90;;;;;;4992838;28;20014;-52
2023/05/11 10:51:32;;;;;;;5.43;4.93;;;15.70;99.90;;;;;;5002679;28;20386;-48
2023/05/11 10:54:06;;;;;;;12.05;5.13;;;15.80;99.90;;;;;;5012637;28;20037;-45
2023/05/11 10:57:06;;;;;;;5.43;4.97;;;15.90;99.90;;;;;;5012516;28;20040;-49
2023/05/11 10:59:38;;;;;;;6.50;5.07;;;15.90;99.90;;;;;;5012365;28;20520;-49
2023/05/11 11:02:05;;;;;;;6.32;5.60;;;15.90;99.90;;;;;;5012870;28;20057;-49
2023/05/11 11:04:47;;;;;;;6.20;5.15;;;15.90;99.90;;;;;;5012435;28;20057;-44
2023/05/11 11:07:17;;;;;;;8.52;6.18;;;15.90;99.90;;;;;;5011604;28;20029;-45
2023/05/11 11:09:56;;;;;;;8.57;6.13;;;15.80;99.90;;;;;;5012710;28;20045;-48
2023/05/11 11:12:23;;;;;;;7.47;6.70;;;15.80;99.90;;;;;;5012191;28;20030;-47
2023/05/11 11:14:59;;;;;;;18.08;7.50;;;15.80;99.90;;;;;;5012269;28;20025;-45
2023/05/11 11:17:27;;;;;;;6.97;6.38;;;15.80;99.90;;;;;;5011821;28;20061;-44
2023/05/11 11:19:53;;;;;;;8.50;5.47;;;15.90;99.90;;;;;;5012652;28;20545;-45
2023/05/11 11:22:34;;;;;;;6.15;5.55;;;16.10;99.90;;;;;;5011947;28;20124;-49
2023/05/11 11:25:00;;;;;;;6.85;6.00;;;16.10;99.90;;;;;;5012133;28;20397;-46
2023/05/11 11:27:46;;;;;;;5.72;5.00;;;16.40;99.90;;;;;;5008892;28;20465;-44
2023/05/11 11:30:22;;;;;;;7.78;4.57;;;16.20;99.90;;;;;;5009343;28;20033;-44
2023/05/11 11:33:14;;;;;;;6.40;5.80;;;16.30;99.90;;;;;;5012037;28;20350;-46
2023/05/11 11:35:40;;;;;;;7.75;5.20;;;16.40;99.90;;;;;;5002754;28;20041;-49
2023/05/11 11:38:09;;;;;;;5.90;5.00;;;16.50;99.90;;;;;;5011504;28;20032;-47
2023/05/11 11:40:37;;;;;;;7.90;6.25;;;16.60;99.90;;;;;;5011736;28;20061;-45
2023/05/11 11:43:11;;;;;;;5.43;4.90;;;16.70;99.90;;;;;;5011416;28;20034;-47
2023/05/11 11:45:38;;;;;;;6.22;5.53;;;16.70;99.90;;;;;;5012259;28;20025;-45
2023/05/11 11:48:09;;;;;;;9.15;5.72;;;16.80;99.90;;;;;;5011672;28;20105;-49
2023/05/11 11:50:34;;;;;;;29.17;21.63;;;16.80;99.90;;;;;;5011541;28;20451;-47
2023/05/11 11:53:00;;;;;;;30.77;22.60;;;16.70;99.90;;;;;;5010367;28;20042;-43
2023/05/11 11:55:49;;;;;;;155.30;95.38;;;16.70;99.90;;;;;;5011677;28;20466;-47
2023/05/11 11:58:39;;;;;;;11.02;7.53;;;16.70;99.90;;;;;;5011712;28;20033;-46
2023/05/11 12:01:05;;;;;;;9.25;6.47;;;16.80;99.90;;;;;;5010657;28;20036;-48
2023/05/11 12:03:34;;;;;;;12.15;5.30;;;16.90;99.90;;;;;;5011667;28;20030;-47
2023/05/11 12:06:00;;;;;;;4.82;4.35;;;17.00;99.90;;;;;;5011839;28;20076;-50
2023/05/11 12:08:30;;;;;;;6.40;4.95;;;17.10;99.90;;;;;;5011540;28;20026;-46
2023/05/11 12:10:56;;;;;;;6.38;5.50;;;17.10;99.90;;;;;;5011338;28;20403;-49
2023/05/11 12:13:23;;;;;;;5.60;5.05;;;17.10;99.90;;;;;;5012341;28;20444;-49
2023/05/11 12:15:49;;;;;;;7.65;4.85;;;17.10;99.90;;;;;;5011900;28;20072;-51
2023/05/11 12:18:22;;;;;;;12.20;6.50;;;17.10;99.90;;;;;;5011120;28;20030;-44
2023/05/11 12:20:47;;;;;;;12.32;5.97;;;17.10;99.90;;;;;;5009865;28;20505;-48
2023/05/11 12:23:13;;;;;;;7.43;5.30;;;17.20;99.90;;;;;;5011863;28;20072;-47
2023/05/11 12:25:39;;;;;;;9.15;5.22;;;17.20;99.90;;;;;;5011984;28;20036;-49
2023/05/11 12:28:05;;;;;;;7.32;5.78;;;17.20;99.90;;;;;;5012003;28;20283;-47
2023/05/11 12:30:32;;;;;;;6.97;5.15;;;17.10;99.90;;;;;;5012046;28;20497;-51
2023/05/11 12:32:58;;;;;;;6.35;5.65;;;17.00;99.90;;;;;;5010636;28;20053;-46
2023/05/11 12:35:32;;;;;;;6.72;5.13;;;16.90;99.90;;;;;;5010627;28;20497;-46
2023/05/11 12:37:59;;;;;;;7.47;5.05;;;16.90;99.90;;;;;;5011753;28;20117;-46
2023/05/11 12:40:25;;;;;;;7.72;5.60;;;17.00;99.90;;;;;;5011439;28;20048;-48
2023/05/11 12:43:00;;;;;;;6.18;5.18;;;17.10;99.90;;;;;;5011088;28;20030;-51
2023/05/11 12:45:26;;;;;;;48.20;32.53;;;17.10;99.90;;;;;;5011422;28;20397;-46
2023/05/11 12:47:53;;;;;;;114.45;74.78;;;17.20;99.90;;;;;;5010851;28;20034;-47
2023/05/11 12:50:20;;;;;;;19.95;14.57;;;17.20;99.90;;;;;;5011869;28;20022;-49